sensor_id;sensor_type;location;lat;lon;timestamp;P1;durP1;ratioP1;P2;durP2;ratioP2
38785;SDS011;24535;45.508;12.252;2023-11-19T00:02:14;33.70;;;22.80;;
38785;SDS011;24535;45.508;12.252;2023-11-19T00:04:40;32.72;;;21.42;;
38785;SDS011;24535;45.508;12.252;2023-11-19T00:07:06;37.67;;;25.00;;
38785;SDS011;24535;45.508;12.252;2023-11-19T00:09:33;29.73;;;22.05;;
38785;SDS011;24535;45.508;12.252;2023-11-19T00:11:59;29.88;;;19.70;;
38785;SDS011;24535;45.508;12.252;2023-11-19T00:14:25;29.25;;;21.10;;
38785;SDS011;24535;45.508;12.252;2023-11-19T00:16:51;28.92;;;21.25;;
38785;SDS011;24535;45.508;12.252;2023-11-19T00:19:18;34.45;;;21.67;;
38785;SDS011;24535;45.508;12.252;2023-11-19T00:21:44;29.30;;;19.95;;
38785;SDS011;24535;45.508;12.252;2023-11-19T00:24:11;30.58;;;21.30;;
38785;SDS011;24535;45.508;12.252;2023-11-19T00:26:37;25.95;;;19.55;;
38785;SDS011;24535;45.508;12.252;2023-11-19T00:29:03;29.27;;;21.23;;
38785;SDS011;24535;45.508;12.252;2023-11-19T00:31:29;29.15;;;19.23;;
38785;SDS011;24535;45.508;12.252;2023-11-19T00:33:54;31.10;;;20.13;;
38785;SDS011;24535;45.508;12.252;2023-11-19T00:36:19;25.80;;;20.77;;
38785;SDS011;24535;45.508;12.252;2023-11-19T00:38:45;30.92;;;20.67;;
38785;SDS011;24535;45.508;12.252;2023-11-19T00:41:11;31.98;;;20.88;;
38785;SDS011;24535;45.508;12.252;2023-11-19T00:43:36;32.05;;;22.02;;
38785;SDS011;24535;45.508;12.252;2023-11-19T00:46:02;29.48;;;19.38;;
38785;SDS011;24535;45.508;12.252;2023-11-19T00:48:30;26.42;;;17.63;;
38785;SDS011;24535;45.508;12.252;2023-11-19T00:50:56;31.00;;;21.15;;
38785;SDS011;24535;45.508;12.252;2023-11-19T00:53:22;28.60;;;20.88;;
38785;SDS011;24535;45.508;12.252;2023-11-19T00:55:47;29.85;;;21.65;;
38785;SDS011;24535;45.508;12.252;2023-11-19T00:58:13;29.35;;;19.85;;
38785;SDS011;24535;45.508;12.252;2023-11-19T01:00:38;26.58;;;18.05;;
38785;SDS011;24535;45.508;12.252;2023-11-19T01:03:03;32.90;;;20.67;;
38785;SDS011;24535;45.508;12.252;2023-11-19T01:05:29;28.05;;;19.88;;
38785;SDS011;24535;45.508;12.252;2023-11-19T01:07:54;30.48;;;20.63;;
38785;SDS011;24535;45.508;12.252;2023-11-19T01:10:20;29.23;;;19.48;;
38785;SDS011;24535;45.508;12.252;2023-11-19T01:12:46;29.10;;;20.13;;
38785;SDS011;24535;45.508;12.252;2023-11-19T01:15:11;28.65;;;18.67;;
38785;SDS011;24535;45.508;12.252;2023-11-19T01:17:38;28.75;;;19.35;;
38785;SDS011;24535;45.508;12.252;2023-11-19T01:20:04;29.00;;;19.98;;
38785;SDS011;24535;45.508;12.252;2023-11-19T01:22:32;31.33;;;20.70;;
38785;SDS011;24535;45.508;12.252;2023-11-19T01:24:58;31.67;;;22.25;;
38785;SDS011;24535;45.508;12.252;2023-11-19T01:27:26;31.40;;;20.45;;
38785;SDS011;24535;45.508;12.252;2023-11-19T01:29:51;27.60;;;20.07;;
38785;SDS011;24535;45.508;12.252;2023-11-19T01:32:17;32.78;;;20.75;;
38785;SDS011;24535;45.508;12.252;2023-11-19T01:34:42;27.73;;;17.67;;
38785;SDS011;24535;45.508;12.252;2023-11-19T01:37:08;23.15;;;17.48;;
38785;SDS011;24535;45.508;12.252;2023-11-19T01:39:35;29.13;;;18.67;;
38785;SDS011;24535;45.508;12.252;2023-11-19T01:42:00;25.17;;;18.00;;
38785;SDS011;24535;45.508;12.252;2023-11-19T01:44:26;27.38;;;18.70;;
38785;SDS011;24535;45.508;12.252;2023-11-19T01:46:51;27.25;;;18.83;;
38785;SDS011;24535;45.508;12.252;2023-11-19T01:49:17;21.60;;;15.48;;
38785;SDS011;24535;45.508;12.252;2023-11-19T01:51:44;30.73;;;19.73;;
38785;SDS011;24535;45.508;12.252;2023-11-19T01:54:11;22.58;;;16.83;;
38785;SDS011;24535;45.508;12.252;2023-11-19T01:56:38;23.38;;;17.13;;
38785;SDS011;24535;45.508;12.252;2023-11-19T01:59:05;25.85;;;17.35;;
38785;SDS011;24535;45.508;12.252;2023-11-19T02:01:33;30.48;;;19.73;;
38785;SDS011;24535;45.508;12.252;2023-11-19T02:04:03;24.92;;;17.90;;
38785;SDS011;24535;45.508;12.252;2023-11-19T02:06:29;29.50;;;18.67;;
38785;SDS011;24535;45.508;12.252;2023-11-19T02:08:57;25.80;;;17.03;;
38785;SDS011;24535;45.508;12.252;2023-11-19T02:11:23;32.42;;;18.35;;
38785;SDS011;24535;45.508;12.252;2023-11-19T02:13:49;26.48;;;17.73;;
38785;SDS011;24535;45.508;12.252;2023-11-19T02:16:14;24.38;;;17.65;;
38785;SDS011;24535;45.508;12.252;2023-11-19T02:18:40;27.33;;;18.15;;
38785;SDS011;24535;45.508;12.252;2023-11-19T02:21:05;25.65;;;19.75;;
38785;SDS011;24535;45.508;12.252;2023-11-19T02:23:31;30.58;;;21.15;;
38785;SDS011;24535;45.508;12.252;2023-11-19T02:28:22;26.88;;;19.33;;
38785;SDS011;24535;45.508;12.252;2023-11-19T02:30:48;27.88;;;19.60;;
38785;SDS011;24535;45.508;12.252;2023-11-19T02:33:13;26.92;;;18.50;;
38785;SDS011;24535;45.508;12.252;2023-11-19T02:35:40;22.40;;;17.17;;
38785;SDS011;24535;45.508;12.252;2023-11-19T02:38:06;26.27;;;18.58;;
38785;SDS011;24535;45.508;12.252;2023-11-19T02:40:32;27.73;;;18.75;;
38785;SDS011;24535;45.508;12.252;2023-11-19T02:42:58;24.88;;;18.30;;
38785;SDS011;24535;45.508;12.252;2023-11-19T02:45:24;33.50;;;18.60;;
38785;SDS011;24535;45.508;12.252;2023-11-19T02:47:50;24.70;;;18.08;;
38785;SDS011;24535;45.508;12.252;2023-11-19T02:50:17;31.52;;;19.10;;
38785;SDS011;24535;45.508;12.252;2023-11-19T02:52:49;26.52;;;18.92;;
38785;SDS011;24535;45.508;12.252;2023-11-19T02:55:16;28.20;;;18.77;;
38785;SDS011;24535;45.508;12.252;2023-11-19T02:57:43;25.05;;;17.40;;
38785;SDS011;24535;45.508;12.252;2023-11-19T03:00:16;24.60;;;18.27;;
38785;SDS011;24535;45.508;12.252;2023-11-19T03:05:13;24.67;;;15.75;;
38785;SDS011;24535;45.508;12.252;2023-11-19T03:07:40;24.42;;;17.20;;
38785;SDS011;24535;45.508;12.252;2023-11-19T03:10:08;28.30;;;18.80;;
38785;SDS011;24535;45.508;12.252;2023-11-19T03:12:34;23.67;;;16.92;;
38785;SDS011;24535;45.508;12.252;2023-11-19T03:15:00;26.65;;;17.67;;
38785;SDS011;24535;45.508;12.252;2023-11-19T03:17:26;25.67;;;17.55;;
38785;SDS011;24535;45.508;12.252;2023-11-19T03:19:51;25.10;;;16.80;;
38785;SDS011;24535;45.508;12.252;2023-11-19T03:22:17;25.75;;;16.00;;
38785;SDS011;24535;45.508;12.252;2023-11-19T03:24:42;23.75;;;16.95;;
38785;SDS011;24535;45.508;12.252;2023-11-19T03:27:07;23.58;;;15.25;;
38785;SDS011;24535;45.508;12.252;2023-11-19T03:29:33;19.92;;;14.63;;
38785;SDS011;24535;45.508;12.252;2023-11-19T03:31:58;25.42;;;15.23;;
38785;SDS011;24535;45.508;12.252;2023-11-19T03:34:24;25.63;;;15.23;;
38785;SDS011;24535;45.508;12.252;2023-11-19T03:36:49;24.80;;;16.23;;
38785;SDS011;24535;45.508;12.252;2023-11-19T03:39:14;22.35;;;14.82;;
38785;SDS011;24535;45.508;12.252;2023-11-19T03:41:40;24.30;;;16.35;;
38785;SDS011;24535;45.508;12.252;2023-11-19T03:44:05;20.95;;;14.75;;
38785;SDS011;24535;45.508;12.252;2023-11-19T03:46:31;23.25;;;15.10;;
38785;SDS011;24535;45.508;12.252;2023-11-19T03:48:56;22.48;;;15.85;;
38785;SDS011;24535;45.508;12.252;2023-11-19T03:51:21;22.63;;;15.68;;
38785;SDS011;24535;45.508;12.252;2023-11-19T03:53:47;21.27;;;15.88;;
38785;SDS011;24535;45.508;12.252;2023-11-19T03:56:12;22.23;;;16.83;;
38785;SDS011;24535;45.508;12.252;2023-11-19T03:58:38;23.40;;;16.45;;
38785;SDS011;24535;45.508;12.252;2023-11-19T04:01:13;22.05;;;16.17;;
38785;SDS011;24535;45.508;12.252;2023-11-19T04:03:38;23.33;;;17.02;;
38785;SDS011;24535;45.508;12.252;2023-11-19T04:06:04;22.17;;;16.85;;
38785;SDS011;24535;45.508;12.252;2023-11-19T04:08:30;25.92;;;17.45;;
38785;SDS011;24535;45.508;12.252;2023-11-19T04:10:55;20.67;;;16.58;;
38785;SDS011;24535;45.508;12.252;2023-11-19T04:13:21;23.08;;;16.33;;
38785;SDS011;24535;45.508;12.252;2023-11-19T04:15:49;25.50;;;17.33;;
38785;SDS011;24535;45.508;12.252;2023-11-19T04:18:15;23.70;;;16.25;;
38785;SDS011;24535;45.508;12.252;2023-11-19T04:20:41;20.38;;;15.40;;
38785;SDS011;24535;45.508;12.252;2023-11-19T04:23:07;22.70;;;16.67;;
38785;SDS011;24535;45.508;12.252;2023-11-19T04:25:36;21.55;;;16.25;;
38785;SDS011;24535;45.508;12.252;2023-11-19T04:28:02;22.48;;;16.33;;
38785;SDS011;24535;45.508;12.252;2023-11-19T04:30:28;24.38;;;17.05;;
38785;SDS011;24535;45.508;12.252;2023-11-19T04:32:53;22.60;;;16.90;;
38785;SDS011;24535;45.508;12.252;2023-11-19T04:35:19;25.23;;;17.05;;
38785;SDS011;24535;45.508;12.252;2023-11-19T04:37:44;20.30;;;16.48;;
38785;SDS011;24535;45.508;12.252;2023-11-19T04:40:10;20.58;;;16.20;;
38785;SDS011;24535;45.508;12.252;2023-11-19T04:42:37;23.02;;;16.40;;
38785;SDS011;24535;45.508;12.252;2023-11-19T04:45:05;23.70;;;17.88;;
38785;SDS011;24535;45.508;12.252;2023-11-19T04:47:32;26.25;;;16.52;;
38785;SDS011;24535;45.508;12.252;2023-11-19T04:49:58;23.67;;;16.25;;
38785;SDS011;24535;45.508;12.252;2023-11-19T04:52:24;24.58;;;15.38;;
38785;SDS011;24535;45.508;12.252;2023-11-19T04:54:49;21.30;;;16.40;;
38785;SDS011;24535;45.508;12.252;2023-11-19T04:57:14;26.45;;;15.93;;
38785;SDS011;24535;45.508;12.252;2023-11-19T04:59:40;23.65;;;16.42;;
38785;SDS011;24535;45.508;12.252;2023-11-19T05:02:06;25.00;;;15.85;;
38785;SDS011;24535;45.508;12.252;2023-11-19T05:04:33;22.33;;;15.82;;
38785;SDS011;24535;45.508;12.252;2023-11-19T05:06:58;21.15;;;15.13;;
38785;SDS011;24535;45.508;12.252;2023-11-19T05:09:24;22.50;;;16.52;;
38785;SDS011;24535;45.508;12.252;2023-11-19T05:11:49;23.40;;;15.82;;
38785;SDS011;24535;45.508;12.252;2023-11-19T05:14:15;21.60;;;15.13;;
38785;SDS011;24535;45.508;12.252;2023-11-19T05:16:41;19.35;;;13.90;;
38785;SDS011;24535;45.508;12.252;2023-11-19T05:19:07;22.33;;;16.00;;
38785;SDS011;24535;45.508;12.252;2023-11-19T05:21:34;19.98;;;15.60;;
38785;SDS011;24535;45.508;12.252;2023-11-19T05:23:59;21.52;;;14.98;;
38785;SDS011;24535;45.508;12.252;2023-11-19T05:26:25;25.67;;;16.88;;
38785;SDS011;24535;45.508;12.252;2023-11-19T05:28:51;20.83;;;15.80;;
38785;SDS011;24535;45.508;12.252;2023-11-19T05:31:16;22.67;;;15.35;;
38785;SDS011;24535;45.508;12.252;2023-11-19T05:33:43;23.35;;;16.77;;
38785;SDS011;24535;45.508;12.252;2023-11-19T05:36:08;22.42;;;16.40;;
38785;SDS011;24535;45.508;12.252;2023-11-19T05:38:36;24.08;;;17.05;;
38785;SDS011;24535;45.508;12.252;2023-11-19T05:41:02;21.50;;;16.30;;
38785;SDS011;24535;45.508;12.252;2023-11-19T05:43:28;22.52;;;16.13;;
38785;SDS011;24535;45.508;12.252;2023-11-19T05:45:53;22.42;;;15.45;;
38785;SDS011;24535;45.508;12.252;2023-11-19T05:48:18;21.30;;;16.00;;
38785;SDS011;24535;45.508;12.252;2023-11-19T05:50:44;22.13;;;15.27;;
38785;SDS011;24535;45.508;12.252;2023-11-19T05:53:09;24.75;;;16.00;;
38785;SDS011;24535;45.508;12.252;2023-11-19T05:55:36;19.65;;;14.48;;
38785;SDS011;24535;45.508;12.252;2023-11-19T05:58:10;24.35;;;17.10;;
38785;SDS011;24535;45.508;12.252;2023-11-19T06:00:37;22.48;;;17.00;;
38785;SDS011;24535;45.508;12.252;2023-11-19T06:03:04;21.95;;;16.30;;
38785;SDS011;24535;45.508;12.252;2023-11-19T06:05:29;20.80;;;16.55;;
38785;SDS011;24535;45.508;12.252;2023-11-19T06:07:54;24.73;;;17.77;;
38785;SDS011;24535;45.508;12.252;2023-11-19T06:10:20;26.02;;;17.20;;
38785;SDS011;24535;45.508;12.252;2023-11-19T06:12:46;25.95;;;17.25;;
38785;SDS011;24535;45.508;12.252;2023-11-19T06:15:12;28.13;;;17.30;;
38785;SDS011;24535;45.508;12.252;2023-11-19T06:17:38;23.98;;;16.48;;
38785;SDS011;24535;45.508;12.252;2023-11-19T06:20:04;26.10;;;17.70;;
38785;SDS011;24535;45.508;12.252;2023-11-19T06:22:30;23.00;;;18.02;;
38785;SDS011;24535;45.508;12.252;2023-11-19T06:24:56;21.42;;;15.40;;
38785;SDS011;24535;45.508;12.252;2023-11-19T06:27:21;21.45;;;16.73;;
38785;SDS011;24535;45.508;12.252;2023-11-19T06:29:47;26.42;;;18.38;;
38785;SDS011;24535;45.508;12.252;2023-11-19T06:32:13;24.08;;;17.38;;
38785;SDS011;24535;45.508;12.252;2023-11-19T06:34:38;22.73;;;17.45;;
38785;SDS011;24535;45.508;12.252;2023-11-19T06:37:03;24.45;;;17.30;;
38785;SDS011;24535;45.508;12.252;2023-11-19T06:39:29;25.73;;;18.25;;
38785;SDS011;24535;45.508;12.252;2023-11-19T06:41:55;26.00;;;17.95;;
38785;SDS011;24535;45.508;12.252;2023-11-19T06:44:20;30.75;;;19.67;;
38785;SDS011;24535;45.508;12.252;2023-11-19T06:46:46;24.52;;;18.73;;
38785;SDS011;24535;45.508;12.252;2023-11-19T06:49:13;21.70;;;15.82;;
38785;SDS011;24535;45.508;12.252;2023-11-19T06:51:42;25.75;;;18.65;;
38785;SDS011;24535;45.508;12.252;2023-11-19T06:54:08;25.38;;;17.77;;
38785;SDS011;24535;45.508;12.252;2023-11-19T06:56:34;24.60;;;16.70;;
38785;SDS011;24535;45.508;12.252;2023-11-19T06:58:59;25.13;;;17.55;;
38785;SDS011;24535;45.508;12.252;2023-11-19T07:01:25;27.05;;;17.35;;
38785;SDS011;24535;45.508;12.252;2023-11-19T07:03:50;26.15;;;17.65;;
38785;SDS011;24535;45.508;12.252;2023-11-19T07:06:16;24.40;;;17.05;;
38785;SDS011;24535;45.508;12.252;2023-11-19T07:08:42;25.42;;;17.65;;
38785;SDS011;24535;45.508;12.252;2023-11-19T07:11:11;22.42;;;16.92;;
38785;SDS011;24535;45.508;12.252;2023-11-19T07:13:37;22.58;;;16.50;;
38785;SDS011;24535;45.508;12.252;2023-11-19T07:16:02;23.58;;;17.27;;
38785;SDS011;24535;45.508;12.252;2023-11-19T07:18:28;22.90;;;17.00;;
38785;SDS011;24535;45.508;12.252;2023-11-19T07:20:54;22.27;;;16.83;;
38785;SDS011;24535;45.508;12.252;2023-11-19T07:23:20;24.40;;;16.85;;
38785;SDS011;24535;45.508;12.252;2023-11-19T07:25:46;25.67;;;17.85;;
38785;SDS011;24535;45.508;12.252;2023-11-19T07:28:15;22.38;;;17.13;;
38785;SDS011;24535;45.508;12.252;2023-11-19T07:30:41;24.48;;;16.15;;
38785;SDS011;24535;45.508;12.252;2023-11-19T07:33:07;27.85;;;19.80;;
38785;SDS011;24535;45.508;12.252;2023-11-19T07:35:33;27.33;;;20.70;;
38785;SDS011;24535;45.508;12.252;2023-11-19T07:37:59;25.05;;;20.20;;
38785;SDS011;24535;45.508;12.252;2023-11-19T07:40:24;28.73;;;19.80;;
38785;SDS011;24535;45.508;12.252;2023-11-19T07:42:50;23.98;;;18.33;;
38785;SDS011;24535;45.508;12.252;2023-11-19T07:45:16;25.48;;;18.67;;
38785;SDS011;24535;45.508;12.252;2023-11-19T07:47:41;28.17;;;20.15;;
38785;SDS011;24535;45.508;12.252;2023-11-19T07:50:09;24.45;;;17.98;;
38785;SDS011;24535;45.508;12.252;2023-11-19T07:52:35;22.83;;;16.58;;
38785;SDS011;24535;45.508;12.252;2023-11-19T07:55:02;27.90;;;19.15;;
38785;SDS011;24535;45.508;12.252;2023-11-19T07:57:27;24.65;;;18.95;;
38785;SDS011;24535;45.508;12.252;2023-11-19T07:59:56;26.83;;;19.52;;
38785;SDS011;24535;45.508;12.252;2023-11-19T08:02:21;22.13;;;17.40;;
38785;SDS011;24535;45.508;12.252;2023-11-19T08:04:48;24.67;;;16.63;;
38785;SDS011;24535;45.508;12.252;2023-11-19T08:07:17;33.40;;;22.77;;
38785;SDS011;24535;45.508;12.252;2023-11-19T08:09:43;30.50;;;19.60;;
38785;SDS011;24535;45.508;12.252;2023-11-19T08:12:09;21.25;;;15.65;;
38785;SDS011;24535;45.508;12.252;2023-11-19T08:14:35;23.70;;;16.00;;
38785;SDS011;24535;45.508;12.252;2023-11-19T08:17:02;23.60;;;15.55;;
38785;SDS011;24535;45.508;12.252;2023-11-19T08:19:27;21.95;;;15.85;;
38785;SDS011;24535;45.508;12.252;2023-11-19T08:21:53;19.42;;;13.52;;
38785;SDS011;24535;45.508;12.252;2023-11-19T08:24:18;18.55;;;13.27;;
38785;SDS011;24535;45.508;12.252;2023-11-19T08:26:44;18.00;;;12.80;;
38785;SDS011;24535;45.508;12.252;2023-11-19T08:29:09;18.92;;;13.65;;
38785;SDS011;24535;45.508;12.252;2023-11-19T08:31:35;18.77;;;11.45;;
38785;SDS011;24535;45.508;12.252;2023-11-19T08:34:00;14.82;;;11.75;;
38785;SDS011;24535;45.508;12.252;2023-11-19T08:36:26;17.98;;;12.23;;
38785;SDS011;24535;45.508;12.252;2023-11-19T08:38:53;16.92;;;10.95;;
38785;SDS011;24535;45.508;12.252;2023-11-19T08:41:18;14.95;;;9.85;;
38785;SDS011;24535;45.508;12.252;2023-11-19T08:43:44;19.10;;;11.25;;
38785;SDS011;24535;45.508;12.252;2023-11-19T08:46:13;15.77;;;10.50;;
38785;SDS011;24535;45.508;12.252;2023-11-19T08:48:39;15.38;;;8.90;;
38785;SDS011;24535;45.508;12.252;2023-11-19T08:51:04;10.55;;;8.70;;
38785;SDS011;24535;45.508;12.252;2023-11-19T08:53:30;12.43;;;8.82;;
38785;SDS011;24535;45.508;12.252;2023-11-19T08:55:56;10.90;;;7.47;;
38785;SDS011;24535;45.508;12.252;2023-11-19T08:58:21;9.38;;;7.45;;
38785;SDS011;24535;45.508;12.252;2023-11-19T09:00:47;10.40;;;6.97;;
38785;SDS011;24535;45.508;12.252;2023-11-19T09:03:12;11.70;;;7.60;;
38785;SDS011;24535;45.508;12.252;2023-11-19T09:05:38;14.10;;;7.85;;
38785;SDS011;24535;45.508;12.252;2023-11-19T09:08:03;8.07;;;6.13;;
38785;SDS011;24535;45.508;12.252;2023-11-19T09:10:29;9.05;;;6.10;;
38785;SDS011;24535;45.508;12.252;2023-11-19T09:12:55;14.18;;;6.60;;
38785;SDS011;24535;45.508;12.252;2023-11-19T09:15:20;11.98;;;6.25;;
38785;SDS011;24535;45.508;12.252;2023-11-19T09:17:45;8.18;;;5.32;;
38785;SDS011;24535;45.508;12.252;2023-11-19T09:20:11;10.05;;;5.82;;
38785;SDS011;24535;45.508;12.252;2023-11-19T09:22:40;7.80;;;5.07;;
38785;SDS011;24535;45.508;12.252;2023-11-19T09:25:05;8.80;;;5.72;;
38785;SDS011;24535;45.508;12.252;2023-11-19T09:27:31;11.05;;;6.00;;
38785;SDS011;24535;45.508;12.252;2023-11-19T09:29:56;10.00;;;5.88;;
38785;SDS011;24535;45.508;12.252;2023-11-19T09:32:23;12.23;;;8.23;;
38785;SDS011;24535;45.508;12.252;2023-11-19T09:34:49;12.00;;;6.40;;
38785;SDS011;24535;45.508;12.252;2023-11-19T09:37:15;9.35;;;6.63;;
38785;SDS011;24535;45.508;12.252;2023-11-19T09:39:40;10.55;;;5.57;;
38785;SDS011;24535;45.508;12.252;2023-11-19T09:42:08;10.68;;;6.85;;
38785;SDS011;24535;45.508;12.252;2023-11-19T09:44:35;7.45;;;5.18;;
38785;SDS011;24535;45.508;12.252;2023-11-19T09:47:03;7.45;;;5.57;;
38785;SDS011;24535;45.508;12.252;2023-11-19T09:49:30;11.18;;;7.10;;
38785;SDS011;24535;45.508;12.252;2023-11-19T09:51:56;9.57;;;5.97;;
38785;SDS011;24535;45.508;12.252;2023-11-19T09:54:21;9.27;;;6.40;;
38785;SDS011;24535;45.508;12.252;2023-11-19T09:56:47;8.55;;;6.18;;
38785;SDS011;24535;45.508;12.252;2023-11-19T09:59:13;7.13;;;4.28;;
38785;SDS011;24535;45.508;12.252;2023-11-19T10:01:39;7.05;;;5.70;;
38785;SDS011;24535;45.508;12.252;2023-11-19T10:04:05;5.68;;;4.70;;
38785;SDS011;24535;45.508;12.252;2023-11-19T10:06:32;6.65;;;4.90;;
38785;SDS011;24535;45.508;12.252;2023-11-19T10:08:57;8.90;;;4.95;;
38785;SDS011;24535;45.508;12.252;2023-11-19T10:11:24;6.70;;;4.50;;
38785;SDS011;24535;45.508;12.252;2023-11-19T10:13:50;6.50;;;4.57;;
38785;SDS011;24535;45.508;12.252;2023-11-19T10:16:18;7.05;;;4.38;;
38785;SDS011;24535;45.508;12.252;2023-11-19T10:18:47;7.88;;;4.30;;
38785;SDS011;24535;45.508;12.252;2023-11-19T10:21:16;9.35;;;4.18;;
38785;SDS011;24535;45.508;12.252;2023-11-19T10:23:49;5.28;;;4.45;;
38785;SDS011;24535;45.508;12.252;2023-11-19T10:26:16;6.50;;;4.53;;
38785;SDS011;24535;45.508;12.252;2023-11-19T10:28:42;6.50;;;3.78;;
38785;SDS011;24535;45.508;12.252;2023-11-19T10:31:10;6.03;;;3.80;;
38785;SDS011;24535;45.508;12.252;2023-11-19T10:33:38;4.38;;;3.55;;
38785;SDS011;24535;45.508;12.252;2023-11-19T10:36:03;4.20;;;2.75;;
38785;SDS011;24535;45.508;12.252;2023-11-19T10:38:29;5.82;;;3.88;;
38785;SDS011;24535;45.508;12.252;2023-11-19T10:40:55;5.90;;;4.13;;
38785;SDS011;24535;45.508;12.252;2023-11-19T10:43:21;6.22;;;3.88;;
38785;SDS011;24535;45.508;12.252;2023-11-19T10:45:48;5.30;;;2.83;;
38785;SDS011;24535;45.508;12.252;2023-11-19T10:48:13;6.10;;;3.25;;
38785;SDS011;24535;45.508;12.252;2023-11-19T10:50:40;6.10;;;4.15;;
38785;SDS011;24535;45.508;12.252;2023-11-19T10:53:07;6.82;;;2.75;;
38785;SDS011;24535;45.508;12.252;2023-11-19T10:55:35;4.88;;;3.08;;
38785;SDS011;24535;45.508;12.252;2023-11-19T10:58:06;4.05;;;3.00;;
38785;SDS011;24535;45.508;12.252;2023-11-19T11:03:11;5.13;;;3.08;;
38785;SDS011;24535;45.508;12.252;2023-11-19T11:05:45;5.03;;;3.20;;
38785;SDS011;24535;45.508;12.252;2023-11-19T11:08:12;7.97;;;3.47;;
38785;SDS011;24535;45.508;12.252;2023-11-19T11:10:39;6.53;;;3.40;;
38785;SDS011;24535;45.508;12.252;2023-11-19T11:13:09;4.93;;;3.22;;
38785;SDS011;24535;45.508;12.252;2023-11-19T11:15:37;5.05;;;2.90;;
38785;SDS011;24535;45.508;12.252;2023-11-19T11:18:02;3.90;;;2.92;;
38785;SDS011;24535;45.508;12.252;2023-11-19T11:20:31;6.30;;;2.90;;
38785;SDS011;24535;45.508;12.252;2023-11-19T11:34:19;4.95;;;3.20;;
38785;SDS011;24535;45.508;12.252;2023-11-19T11:39:25;6.32;;;4.70;;
38785;SDS011;24535;45.508;12.252;2023-11-19T11:42:30;6.90;;;5.05;;
38785;SDS011;24535;45.508;12.252;2023-11-19T11:45:03;5.85;;;3.72;;
38785;SDS011;24535;45.508;12.252;2023-11-19T11:50:11;8.10;;;4.82;;
38785;SDS011;24535;45.508;12.252;2023-11-19T11:55:34;6.10;;;3.60;;
38785;SDS011;24535;45.508;12.252;2023-11-19T11:58:02;7.85;;;3.60;;
38785;SDS011;24535;45.508;12.252;2023-11-19T12:00:37;4.80;;;3.08;;
38785;SDS011;24535;45.508;12.252;2023-11-19T12:03:05;6.80;;;3.97;;
38785;SDS011;24535;45.508;12.252;2023-11-19T12:05:32;5.35;;;2.97;;
38785;SDS011;24535;45.508;12.252;2023-11-19T12:10:29;9.50;;;4.20;;
38785;SDS011;24535;45.508;12.252;2023-11-19T12:12:58;5.18;;;3.20;;
38785;SDS011;24535;45.508;12.252;2023-11-19T12:15:25;7.07;;;3.67;;
38785;SDS011;24535;45.508;12.252;2023-11-19T12:17:53;5.88;;;3.45;;
38785;SDS011;24535;45.508;12.252;2023-11-19T12:20:20;6.78;;;3.67;;
38785;SDS011;24535;45.508;12.252;2023-11-19T12:22:47;9.70;;;5.07;;
38785;SDS011;24535;45.508;12.252;2023-11-19T12:25:14;8.05;;;4.63;;
38785;SDS011;24535;45.508;12.252;2023-11-19T12:27:59;7.47;;;4.30;;
38785;SDS011;24535;45.508;12.252;2023-11-19T12:30:29;6.32;;;3.65;;
38785;SDS011;24535;45.508;12.252;2023-11-19T12:32:55;5.28;;;3.10;;
38785;SDS011;24535;45.508;12.252;2023-11-19T12:35:20;6.10;;;3.78;;
38785;SDS011;24535;45.508;12.252;2023-11-19T12:37:47;8.02;;;4.28;;
38785;SDS011;24535;45.508;12.252;2023-11-19T12:40:14;7.10;;;4.25;;
38785;SDS011;24535;45.508;12.252;2023-11-19T12:42:53;8.55;;;4.13;;
38785;SDS011;24535;45.508;12.252;2023-11-19T12:45:19;5.70;;;2.85;;
38785;SDS011;24535;45.508;12.252;2023-11-19T12:47:46;4.82;;;3.05;;
38785;SDS011;24535;45.508;12.252;2023-11-19T12:50:15;7.05;;;3.95;;
38785;SDS011;24535;45.508;12.252;2023-11-19T12:52:43;11.88;;;6.55;;
38785;SDS011;24535;45.508;12.252;2023-11-19T12:55:28;8.75;;;5.60;;
38785;SDS011;24535;45.508;12.252;2023-11-19T12:57:55;6.65;;;3.90;;
38785;SDS011;24535;45.508;12.252;2023-11-19T13:00:24;9.57;;;4.90;;
38785;SDS011;24535;45.508;12.252;2023-11-19T13:02:52;10.18;;;6.03;;
38785;SDS011;24535;45.508;12.252;2023-11-19T13:07:46;10.35;;;5.53;;
38785;SDS011;24535;45.508;12.252;2023-11-19T13:10:12;13.35;;;6.45;;
38785;SDS011;24535;45.508;12.252;2023-11-19T13:12:38;7.70;;;4.50;;
38785;SDS011;24535;45.508;12.252;2023-11-19T13:15:04;5.50;;;4.25;;
38785;SDS011;24535;45.508;12.252;2023-11-19T13:17:30;10.70;;;5.63;;
38785;SDS011;24535;45.508;12.252;2023-11-19T13:19:56;11.57;;;5.75;;
38785;SDS011;24535;45.508;12.252;2023-11-19T13:22:22;10.85;;;6.13;;
38785;SDS011;24535;45.508;12.252;2023-11-19T13:24:48;6.97;;;4.45;;
38785;SDS011;24535;45.508;12.252;2023-11-19T13:27:13;9.43;;;5.00;;
38785;SDS011;24535;45.508;12.252;2023-11-19T13:29:39;9.85;;;5.80;;
38785;SDS011;24535;45.508;12.252;2023-11-19T13:32:04;8.75;;;5.07;;
38785;SDS011;24535;45.508;12.252;2023-11-19T13:34:30;8.65;;;5.40;;
38785;SDS011;24535;45.508;12.252;2023-11-19T13:36:56;11.63;;;6.00;;
38785;SDS011;24535;45.508;12.252;2023-11-19T13:39:22;5.70;;;3.42;;
38785;SDS011;24535;45.508;12.252;2023-11-19T13:41:47;11.55;;;5.95;;
38785;SDS011;24535;45.508;12.252;2023-11-19T13:44:13;12.05;;;6.32;;
38785;SDS011;24535;45.508;12.252;2023-11-19T13:46:38;6.88;;;4.22;;
38785;SDS011;24535;45.508;12.252;2023-11-19T13:49:04;7.88;;;4.82;;
38785;SDS011;24535;45.508;12.252;2023-11-19T13:51:30;8.15;;;5.07;;
38785;SDS011;24535;45.508;12.252;2023-11-19T13:53:55;7.75;;;4.50;;
38785;SDS011;24535;45.508;12.252;2023-11-19T13:56:20;6.78;;;3.63;;
38785;SDS011;24535;45.508;12.252;2023-11-19T13:58:46;9.48;;;5.03;;
38785;SDS011;24535;45.508;12.252;2023-11-19T14:01:11;11.20;;;4.68;;
38785;SDS011;24535;45.508;12.252;2023-11-19T14:03:37;8.60;;;5.53;;
38785;SDS011;24535;45.508;12.252;2023-11-19T14:06:03;10.90;;;6.35;;
38785;SDS011;24535;45.508;12.252;2023-11-19T14:08:28;8.40;;;5.50;;
38785;SDS011;24535;45.508;12.252;2023-11-19T14:10:54;12.07;;;7.00;;
38785;SDS011;24535;45.508;12.252;2023-11-19T14:13:21;10.00;;;6.38;;
38785;SDS011;24535;45.508;12.252;2023-11-19T14:15:47;14.43;;;8.10;;
38785;SDS011;24535;45.508;12.252;2023-11-19T14:18:14;15.68;;;8.10;;
38785;SDS011;24535;45.508;12.252;2023-11-19T14:20:40;10.43;;;7.13;;
38785;SDS011;24535;45.508;12.252;2023-11-19T14:23:05;11.98;;;6.90;;
38785;SDS011;24535;45.508;12.252;2023-11-19T14:25:31;9.80;;;6.60;;
38785;SDS011;24535;45.508;12.252;2023-11-19T14:27:56;10.02;;;6.55;;
38785;SDS011;24535;45.508;12.252;2023-11-19T14:30:21;13.05;;;6.82;;
38785;SDS011;24535;45.508;12.252;2023-11-19T14:32:47;11.98;;;6.35;;
38785;SDS011;24535;45.508;12.252;2023-11-19T14:35:13;10.75;;;5.95;;
38785;SDS011;24535;45.508;12.252;2023-11-19T14:37:39;11.93;;;6.25;;
38785;SDS011;24535;45.508;12.252;2023-11-19T14:40:05;10.38;;;5.95;;
38785;SDS011;24535;45.508;12.252;2023-11-19T14:42:33;10.73;;;6.93;;
38785;SDS011;24535;45.508;12.252;2023-11-19T14:44:59;12.60;;;6.72;;